sensor_id;sensor_type;location;lat;lon;timestamp;temperature;humidity
29403;DHT22;16382;59.942;30.472;2023-04-02T00:00:16;-1.10;99.90
29403;DHT22;16382;59.942;30.472;2023-04-02T00:02:47;-1.10;99.90
29403;DHT22;16382;59.942;30.472;2023-04-02T00:05:29;-1.20;99.90
29403;DHT22;16382;59.942;30.472;2023-04-02T00:08:37;-1.20;99.90
29403;DHT22;16382;59.942;30.472;2023-04-02T00:11:06;-1.20;99.90
29403;DHT22;16382;59.942;30.472;2023-04-02T00:13:35;-1.20;99.90
29403;DHT22;16382;59.942;30.472;2023-04-02T00:16:07;-1.20;99.90
29403;DHT22;16382;59.942;30.472;2023-04-02T00:18:41;-1.20;99.90
29403;DHT22;16382;59.942;30.472;2023-04-02T00:21:22;-1.30;99.90
29403;DHT22;16382;59.942;30.472;2023-04-02T00:23:55;-1.30;99.90
29403;DHT22;16382;59.942;30.472;2023-04-02T00:26:29;-1.30;99.90
29403;DHT22;16382;59.942;30.472;2023-04-02T00:28:58;-1.40;99.90
29403;DHT22;16382;59.942;30.472;2023-04-02T00:31:26;-1.40;99.90
29403;DHT22;16382;59.942;30.472;2023-04-02T00:33:54;-1.30;99.90
29403;DHT22;16382;59.942;30.472;2023-04-02T00:36:24;-1.30;99.90
29403;DHT22;16382;59.942;30.472;2023-04-02T00:38:58;-1.20;99.90
29403;DHT22;16382;59.942;30.472;2023-04-02T00:41:30;-1.10;99.90
29403;DHT22;16382;59.942;30.472;2023-04-02T00:44:01;-1.10;99.90
29403;DHT22;16382;59.942;30.472;2023-04-02T00:46:38;-1.00;99.90
29403;DHT22;16382;59.942;30.472;2023-04-02T00:49:17;-1.00;99.90
29403;DHT22;16382;59.942;30.472;2023-04-02T00:51:52;-1.00;99.90
29403;DHT22;16382;59.942;30.472;2023-04-02T00:54:22;-1.00;99.90
29403;DHT22;16382;59.942;30.472;2023-04-02T00:56:53;-0.90;99.90
29403;DHT22;16382;59.942;30.472;2023-04-02T00:59:26;-0.90;99.90
29403;DHT22;16382;59.942;30.472;2023-04-02T01:01:59;-0.90;99.90
29403;DHT22;16382;59.942;30.472;2023-04-02T01:04:51;-0.90;99.90
29403;DHT22;16382;59.942;30.472;2023-04-02T01:07:31;-1.00;99.90
29403;DHT22;16382;59.942;30.472;2023-04-02T01:10:35;-1.10;99.90
29403;DHT22;16382;59.942;30.472;2023-04-02T01:13:14;-1.10;99.90
29403;DHT22;16382;59.942;30.472;2023-04-02T01:15:52;-1.20;99.90
29403;DHT22;16382;59.942;30.472;2023-04-02T01:18:32;-1.20;99.90
29403;DHT22;16382;59.942;30.472;2023-04-02T01:21:44;-1.20;99.90
29403;DHT22;16382;59.942;30.472;2023-04-02T01:24:19;-1.20;99.90
29403;DHT22;16382;59.942;30.472;2023-04-02T01:26:53;-1.20;99.90
29403;DHT22;16382;59.942;30.472;2023-04-02T01:29:26;-1.30;99.90
29403;DHT22;16382;59.942;30.472;2023-04-02T01:31:59;-1.30;99.90
29403;DHT22;16382;59.942;30.472;2023-04-02T01:34:28;-1.30;99.90
29403;DHT22;16382;59.942;30.472;2023-04-02T01:37:08;-1.30;99.90
29403;DHT22;16382;59.942;30.472;2023-04-02T01:39:58;-1.30;99.90
29403;DHT22;16382;59.942;30.472;2023-04-02T01:42:37;-1.30;99.90
29403;DHT22;16382;59.942;30.472;2023-04-02T01:45:12;-1.30;99.90
29403;DHT22;16382;59.942;30.472;2023-04-02T01:47:42;-1.30;99.90
29403;DHT22;16382;59.942;30.472;2023-04-02T01:50:20;-1.30;99.90
29403;DHT22;16382;59.942;30.472;2023-04-02T01:52:58;-1.30;99.90
29403;DHT22;16382;59.942;30.472;2023-04-02T01:55:34;-1.30;99.90
29403;DHT22;16382;59.942;30.472;2023-04-02T01:58:07;-1.30;99.90
29403;DHT22;16382;59.942;30.472;2023-04-02T02:00:42;-1.40;99.90
29403;DHT22;16382;59.942;30.472;2023-04-02T02:03:13;-1.40;99.90
29403;DHT22;16382;59.942;30.472;2023-04-02T02:05:40;-1.40;99.90
29403;DHT22;16382;59.942;30.472;2023-04-02T02:08:24;-1.30;99.90
29403;DHT22;16382;59.942;30.472;2023-04-02T02:10:57;-1.30;99.90
29403;DHT22;16382;59.942;30.472;2023-04-02T02:13:25;-1.40;99.90
29403;DHT22;16382;59.942;30.472;2023-04-02T02:15:57;-1.40;99.90
29403;DHT22;16382;59.942;30.472;2023-04-02T02:18:25;-1.40;99.90
29403;DHT22;16382;59.942;30.472;2023-04-02T02:20:56;-1.40;99.90
29403;DHT22;16382;59.942;30.472;2023-04-02T02:23:27;-1.50;99.90
29403;DHT22;16382;59.942;30.472;2023-04-02T02:25:56;-1.50;99.90
29403;DHT22;16382;59.942;30.472;2023-04-02T02:28:25;-1.50;99.90
29403;DHT22;16382;59.942;30.472;2023-04-02T02:30:58;-1.60;99.90
29403;DHT22;16382;59.942;30.472;2023-04-02T02:33:31;-1.60;99.90
29403;DHT22;16382;59.942;30.472;2023-04-02T02:36:04;-1.60;99.90
29403;DHT22;16382;59.942;30.472;2023-04-02T02:38:42;-1.60;99.90
29403;DHT22;16382;59.942;30.472;2023-04-02T02:41:27;-1.50;99.90
29403;DHT22;16382;59.942;30.472;2023-04-02T02:44:01;-1.60;99.90
29403;DHT22;16382;59.942;30.472;2023-04-02T02:46:35;-1.60;99.90
29403;DHT22;16382;59.942;30.472;2023-04-02T02:49:08;-1.60;99.90
29403;DHT22;16382;59.942;30.472;2023-04-02T02:51:43;-1.60;99.90
29403;DHT22;16382;59.942;30.472;2023-04-02T02:54:19;-1.60;99.90
29403;DHT22;16382;59.942;30.472;2023-04-02T02:56:50;-1.60;99.90
29403;DHT22;16382;59.942;30.472;2023-04-02T02:59:21;-1.60;99.90
29403;DHT22;16382;59.942;30.472;2023-04-02T03:01:51;-1.60;99.90
29403;DHT22;16382;59.942;30.472;2023-04-02T03:04:21;-1.60;99.90
29403;DHT22;16382;59.942;30.472;2023-04-02T03:06:52;-1.60;99.90
29403;DHT22;16382;59.942;30.472;2023-04-02T03:09:30;-1.60;99.90
29403;DHT22;16382;59.942;30.472;2023-04-02T03:12:05;-1.70;99.90
29403;DHT22;16382;59.942;30.472;2023-04-02T03:14:41;-1.70;99.90
29403;DHT22;16382;59.942;30.472;2023-04-02T03:17:18;-1.70;99.90
29403;DHT22;16382;59.942;30.472;2023-04-02T03:19:51;-1.80;99.90
29403;DHT22;16382;59.942;30.472;2023-04-02T03:22:24;-1.80;99.90
29403;DHT22;16382;59.942;30.472;2023-04-02T03:24:59;-1.80;99.90
29403;DHT22;16382;59.942;30.472;2023-04-02T03:27:33;-1.80;99.90
29403;DHT22;16382;59.942;30.472;2023-04-02T03:30:17;-1.80;99.90
29403;DHT22;16382;59.942;30.472;2023-04-02T03:33:02;-1.80;99.90
29403;DHT22;16382;59.942;30.472;2023-04-02T03:35:35;-1.80;99.90
29403;DHT22;16382;59.942;30.472;2023-04-02T03:38:10;-1.80;99.90
29403;DHT22;16382;59.942;30.472;2023-04-02T03:40:47;-1.80;99.90
29403;DHT22;16382;59.942;30.472;2023-04-02T03:43:29;-1.80;99.90
29403;DHT22;16382;59.942;30.472;2023-04-02T03:46:06;-1.80;99.90
29403;DHT22;16382;59.942;30.472;2023-04-02T03:48:43;-1.80;99.90
29403;DHT22;16382;59.942;30.472;2023-04-02T03:51:17;-1.80;99.90
29403;DHT22;16382;59.942;30.472;2023-04-02T03:53:48;-1.80;99.90
29403;DHT22;16382;59.942;30.472;2023-04-02T03:56:24;-1.80;99.90
29403;DHT22;16382;59.942;30.472;2023-04-02T03:59:03;-1.80;99.90
29403;DHT22;16382;59.942;30.472;2023-04-02T04:01:37;-1.80;99.90
29403;DHT22;16382;59.942;30.472;2023-04-02T04:04:13;-1.70;99.90
29403;DHT22;16382;59.942;30.472;2023-04-02T04:06:45;-1.70;99.90
29403;DHT22;16382;59.942;30.472;2023-04-02T04:09:21;-1.70;99.90
29403;DHT22;16382;59.942;30.472;2023-04-02T04:11:52;-1.60;99.90
29403;DHT22;16382;59.942;30.472;2023-04-02T04:14:31;-1.60;99.90
29403;DHT22;16382;59.942;30.472;2023-04-02T04:17:03;-1.60;99.90
29403;DHT22;16382;59.942;30.472;2023-04-02T04:19:43;-1.60;99.90
29403;DHT22;16382;59.942;30.472;2023-04-02T04:22:16;-1.60;99.90
29403;DHT22;16382;59.942;30.472;2023-04-02T04:24:48;-1.50;99.90
29403;DHT22;16382;59.942;30.472;2023-04-02T04:27:22;-1.50;99.90
29403;DHT22;16382;59.942;30.472;2023-04-02T04:30:03;-1.50;99.90
29403;DHT22;16382;59.942;30.472;2023-04-02T04:32:42;-1.50;99.90
29403;DHT22;16382;59.942;30.472;2023-04-02T04:35:24;-1.50;99.90
29403;DHT22;16382;59.942;30.472;2023-04-02T04:37:56;-1.50;99.90
29403;DHT22;16382;59.942;30.472;2023-04-02T04:40:32;-1.40;99.90
29403;DHT22;16382;59.942;30.472;2023-04-02T04:43:04;-1.40;99.90
29403;DHT22;16382;59.942;30.472;2023-04-02T04:45:41;-1.40;99.90
29403;DHT22;16382;59.942;30.472;2023-04-02T04:48:19;-1.40;99.90
29403;DHT22;16382;59.942;30.472;2023-04-02T04:50:53;-1.40;99.90
29403;DHT22;16382;59.942;30.472;2023-04-02T04:53:26;-1.30;99.90
29403;DHT22;16382;59.942;30.472;2023-04-02T04:55:58;-1.30;99.90
29403;DHT22;16382;59.942;30.472;2023-04-02T04:58:34;-1.30;99.90
29403;DHT22;16382;59.942;30.472;2023-04-02T05:01:08;-1.20;99.90
29403;DHT22;16382;59.942;30.472;2023-04-02T05:03:44;-1.20;99.90
29403;DHT22;16382;59.942;30.472;2023-04-02T05:06:30;-1.20;99.90
29403;DHT22;16382;59.942;30.472;2023-04-02T05:09:10;-1.10;99.90
29403;DHT22;16382;59.942;30.472;2023-04-02T05:11:43;-1.10;99.90
29403;DHT22;16382;59.942;30.472;2023-04-02T05:14:21;-1.10;99.90
29403;DHT22;16382;59.942;30.472;2023-04-02T05:16:56;-1.00;99.90
29403;DHT22;16382;59.942;30.472;2023-04-02T05:19:33;-0.90;99.90
29403;DHT22;16382;59.942;30.472;2023-04-02T05:22:13;-0.90;99.90
29403;DHT22;16382;59.942;30.472;2023-04-02T05:24:55;-0.80;99.90
29403;DHT22;16382;59.942;30.472;2023-04-02T05:27:32;-0.80;99.90
29403;DHT22;16382;59.942;30.472;2023-04-02T05:30:12;-0.80;99.90
29403;DHT22;16382;59.942;30.472;2023-04-02T05:32:59;-0.70;99.90
29403;DHT22;16382;59.942;30.472;2023-04-02T05:35:32;-0.70;99.90
29403;DHT22;16382;59.942;30.472;2023-04-02T05:38:04;-0.60;99.90
29403;DHT22;16382;59.942;30.472;2023-04-02T05:40:36;-0.60;99.90
29403;DHT22;16382;59.942;30.472;2023-04-02T05:43:09;-0.50;99.90
29403;DHT22;16382;59.942;30.472;2023-04-02T05:45:44;-0.50;99.90
29403;DHT22;16382;59.942;30.472;2023-04-02T05:48:23;-0.50;99.90
29403;DHT22;16382;59.942;30.472;2023-04-02T05:50:56;-0.40;99.90
29403;DHT22;16382;59.942;30.472;2023-04-02T05:53:33;-0.30;99.90
29403;DHT22;16382;59.942;30.472;2023-04-02T05:56:05;-0.20;99.90
29403;DHT22;16382;59.942;30.472;2023-04-02T05:58:40;-0.20;99.90
29403;DHT22;16382;59.942;30.472;2023-04-02T06:01:36;-0.10;99.90
29403;DHT22;16382;59.942;30.472;2023-04-02T06:04:17;0.00;99.90
29403;DHT22;16382;59.942;30.472;2023-04-02T06:06:56;0.30;99.90
29403;DHT22;16382;59.942;30.472;2023-04-02T06:09:41;0.90;99.90
29403;DHT22;16382;59.942;30.472;2023-04-02T06:12:22;1.90;99.90
29403;DHT22;16382;59.942;30.472;2023-04-02T06:14:54;3.00;99.90
29403;DHT22;16382;59.942;30.472;2023-04-02T06:17:25;4.00;99.90
29403;DHT22;16382;59.942;30.472;2023-04-02T06:19:55;4.80;99.90
29403;DHT22;16382;59.942;30.472;2023-04-02T06:22:34;5.50;99.90
29403;DHT22;16382;59.942;30.472;2023-04-02T06:25:16;6.10;99.90
29403;DHT22;16382;59.942;30.472;2023-04-02T06:27:57;6.70;99.90
29403;DHT22;16382;59.942;30.472;2023-04-02T06:30:29;7.10;99.90
29403;DHT22;16382;59.942;30.472;2023-04-02T06:33:00;7.40;99.90
29403;DHT22;16382;59.942;30.472;2023-04-02T06:35:33;7.50;99.90
29403;DHT22;16382;59.942;30.472;2023-04-02T06:38:05;7.70;99.90
29403;DHT22;16382;59.942;30.472;2023-04-02T06:40:40;8.10;99.90
29403;DHT22;16382;59.942;30.472;2023-04-02T06:43:24;8.40;99.90
29403;DHT22;16382;59.942;30.472;2023-04-02T06:46:24;8.80;99.90
29403;DHT22;16382;59.942;30.472;2023-04-02T06:49:08;9.30;99.90
29403;DHT22;16382;59.942;30.472;2023-04-02T06:51:43;9.50;99.30
29403;DHT22;16382;59.942;30.472;2023-04-02T06:54:16;9.50;96.50
29403;DHT22;16382;59.942;30.472;2023-04-02T06:56:51;9.40;96.40
29403;DHT22;16382;59.942;30.472;2023-04-02T06:59:35;9.20;96.20
29403;DHT22;16382;59.942;30.472;2023-04-02T07:02:20;9.50;96.00
29403;DHT22;16382;59.942;30.472;2023-04-02T07:04:57;10.00;95.10
29403;DHT22;16382;59.942;30.472;2023-04-02T07:07:29;10.50;92.80
29403;DHT22;16382;59.942;30.472;2023-04-02T07:09:58;10.30;92.30
29403;DHT22;16382;59.942;30.472;2023-04-02T07:12:27;10.40;91.70
29403;DHT22;16382;59.942;30.472;2023-04-02T07:14:55;10.90;91.20
29403;DHT22;16382;59.942;30.472;2023-04-02T07:17:23;11.70;89.20
29403;DHT22;16382;59.942;30.472;2023-04-02T07:19:51;12.20;84.00
29403;DHT22;16382;59.942;30.472;2023-04-02T07:22:20;12.80;81.60
29403;DHT22;16382;59.942;30.472;2023-04-02T07:24:55;13.20;78.20
29403;DHT22;16382;59.942;30.472;2023-04-02T07:27:23;13.40;74.60
29403;DHT22;16382;59.942;30.472;2023-04-02T07:29:52;13.40;73.60
29403;DHT22;16382;59.942;30.472;2023-04-02T07:32:19;13.30;73.80
29403;DHT22;16382;59.942;30.472;2023-04-02T07:34:47;13.20;72.20
29403;DHT22;16382;59.942;30.472;2023-04-02T07:37:14;13.60;72.40
29403;DHT22;16382;59.942;30.472;2023-04-02T07:39:42;14.20;69.90
29403;DHT22;16382;59.942;30.472;2023-04-02T07:42:09;14.80;68.00
29403;DHT22;16382;59.942;30.472;2023-04-02T07:44:37;15.50;65.40
29403;DHT22;16382;59.942;30.472;2023-04-02T07:47:06;16.00;63.00
29403;DHT22;16382;59.942;30.472;2023-04-02T07:49:35;15.50;60.70
29403;DHT22;16382;59.942;30.472;2023-04-02T07:52:06;14.80;61.10
29403;DHT22;16382;59.942;30.472;2023-04-02T07:54:34;14.00;62.10
29403;DHT22;16382;59.942;30.472;2023-04-02T07:57:03;13.60;64.10
29403;DHT22;16382;59.942;30.472;2023-04-02T07:59:30;12.80;64.50
29403;DHT22;16382;59.942;30.472;2023-04-02T08:01:58;11.80;66.30
29403;DHT22;16382;59.942;30.472;2023-04-02T08:04:31;11.00;68.40
29403;DHT22;16382;59.942;30.472;2023-04-02T08:07:01;10.60;70.10
29403;DHT22;16382;59.942;30.472;2023-04-02T08:09:30;10.40;71.50
29403;DHT22;16382;59.942;30.472;2023-04-02T08:12:03;10.20;71.50
29403;DHT22;16382;59.942;30.472;2023-04-02T08:16:59;9.90;72.10
29403;DHT22;16382;59.942;30.472;2023-04-02T08:19:26;9.40;72.80
29403;DHT22;16382;59.942;30.472;2023-04-02T08:22:02;9.00;74.00
29403;DHT22;16382;59.942;30.472;2023-04-02T08:24:32;8.50;75.20
29403;DHT22;16382;59.942;30.472;2023-04-02T08:27:03;8.00;76.40
29403;DHT22;16382;59.942;30.472;2023-04-02T08:29:31;7.60;78.90
29403;DHT22;16382;59.942;30.472;2023-04-02T08:31:58;8.60;80.40
29403;DHT22;16382;59.942;30.472;2023-04-02T08:34:27;9.70;76.60
29403;DHT22;16382;59.942;30.472;2023-04-02T08:37:00;11.30;72.90
29403;DHT22;16382;59.942;30.472;2023-04-02T08:39:28;13.10;68.90
29403;DHT22;16382;59.942;30.472;2023-04-02T08:42:03;14.40;65.20
29403;DHT22;16382;59.942;30.472;2023-04-02T08:44:42;15.80;60.80
29403;DHT22;16382;59.942;30.472;2023-04-02T08:47:13;16.50;58.40
29403;DHT22;16382;59.942;30.472;2023-04-02T08:49:49;16.20;56.80
29403;DHT22;16382;59.942;30.472;2023-04-02T08:52:23;14.90;57.60
29403;DHT22;16382;59.942;30.472;2023-04-02T08:54:54;13.50;59.80
29403;DHT22;16382;59.942;30.472;2023-04-02T08:57:29;12.20;62.40
29403;DHT22;16382;59.942;30.472;2023-04-02T09:00:07;11.00;65.30
29403;DHT22;16382;59.942;30.472;2023-04-02T09:02:55;10.00;67.90
29403;DHT22;16382;59.942;30.472;2023-04-02T09:05:30;9.30;71.20
29403;DHT22;16382;59.942;30.472;2023-04-02T09:08:02;8.90;73.50
29403;DHT22;16382;59.942;30.472;2023-04-02T09:10:37;8.90;75.30
29403;DHT22;16382;59.942;30.472;2023-04-02T09:13:14;9.50;76.20
29403;DHT22;16382;59.942;30.472;2023-04-02T09:15:43;10.50;73.70
29403;DHT22;16382;59.942;30.472;2023-04-02T09:18:13;11.30;72.20
29403;DHT22;16382;59.942;30.472;2023-04-02T09:20:43;11.40;70.40
29403;DHT22;16382;59.942;30.472;2023-04-02T09:23:17;10.80;69.70
29403;DHT22;16382;59.942;30.472;2023-04-02T09:25:48;10.10;72.40
29403;DHT22;16382;59.942;30.472;2023-04-02T09:28:18;9.20;73.40
29403;DHT22;16382;59.942;30.472;2023-04-02T09:31:04;8.60;76.60
29403;DHT22;16382;59.942;30.472;2023-04-02T09:33:46;8.10;79.60
29403;DHT22;16382;59.942;30.472;2023-04-02T09:36:27;7.60;80.00
29403;DHT22;16382;59.942;30.472;2023-04-02T09:41:33;7.20;82.90
29403;DHT22;16382;59.942;30.472;2023-04-02T09:44:20;7.10;83.10
29403;DHT22;16382;59.942;30.472;2023-04-02T09:46:53;6.90;84.80
29403;DHT22;16382;59.942;30.472;2023-04-02T09:49:26;6.90;85.20
29403;DHT22;16382;59.942;30.472;2023-04-02T09:52:18;7.00;85.60
29403;DHT22;16382;59.942;30.472;2023-04-02T09:55:15;6.80;86.90
29403;DHT22;16382;59.942;30.472;2023-04-02T09:57:48;6.60;87.70
29403;DHT22;16382;59.942;30.472;2023-04-02T10:00:20;6.60;88.30
29403;DHT22;16382;59.942;30.472;2023-04-02T10:03:01;6.80;89.60
29403;DHT22;16382;59.942;30.472;2023-04-02T10:05:31;7.00;88.40
29403;DHT22;16382;59.942;30.472;2023-04-02T10:08:12;7.20;87.20
29403;DHT22;16382;59.942;30.472;2023-04-02T10:10:47;7.20;87.20
29403;DHT22;16382;59.942;30.472;2023-04-02T10:13:21;7.30;89.20
29403;DHT22;16382;59.942;30.472;2023-04-02T10:15:53;7.20;87.40
29403;DHT22;16382;59.942;30.472;2023-04-02T10:18:32;7.20;88.00
29403;DHT22;16382;59.942;30.472;2023-04-02T10:21:07;7.30;87.50
29403;DHT22;16382;59.942;30.472;2023-04-02T10:23:37;7.80;86.40
29403;DHT22;16382;59.942;30.472;2023-04-02T10:26:30;9.10;84.40
29403;DHT22;16382;59.942;30.472;2023-04-02T10:29:13;11.60;81.30
29403;DHT22;16382;59.942;30.472;2023-04-02T10:31:51;12.70;71.30
29403;DHT22;16382;59.942;30.472;2023-04-02T10:34:32;12.20;70.10
29403;DHT22;16382;59.942;30.472;2023-04-02T10:37:19;12.20;70.80
29403;DHT22;16382;59.942;30.472;2023-04-02T10:40:07;12.60;68.50
29403;DHT22;16382;59.942;30.472;2023-04-02T10:42:45;13.10;69.20
29403;DHT22;16382;59.942;30.472;2023-04-02T10:45:24;13.20;66.10
29403;DHT22;16382;59.942;30.472;2023-04-02T10:48:07;12.70;66.60
29403;DHT22;16382;59.942;30.472;2023-04-02T10:50:47;11.90;67.90
29403;DHT22;16382;59.942;30.472;2023-04-02T10:53:26;11.40;69.70
29403;DHT22;16382;59.942;30.472;2023-04-02T10:56:06;11.90;69.80
29403;DHT22;16382;59.942;30.472;2023-04-02T10:58:46;12.30;67.60
29403;DHT22;16382;59.942;30.472;2023-04-02T11:01:24;11.60;68.50
29403;DHT22;16382;59.942;30.472;2023-04-02T11:03:57;11.00;69.90
29403;DHT22;16382;59.942;30.472;2023-04-02T11:06:31;10.50;72.20
29403;DHT22;16382;59.942;30.472;2023-04-02T11:09:04;10.90;74.50
29403;DHT22;16382;59.942;30.472;2023-04-02T11:11:41;10.90;71.20
29403;DHT22;16382;59.942;30.472;2023-04-02T11:14:17;10.70;71.20
29403;DHT22;16382;59.942;30.472;2023-04-02T11:16:47;11.20;72.50
29403;DHT22;16382;59.942;30.472;2023-04-02T11:19:26;12.60;70.20
29403;DHT22;16382;59.942;30.472;2023-04-02T11:21:56;12.80;66.20
29403;DHT22;16382;59.942;30.472;2023-04-02T11:24:31;12.00;67.00
29403;DHT22;16382;59.942;30.472;2023-04-02T11:27:25;11.20;70.50
29403;DHT22;16382;59.942;30.472;2023-04-02T11:30:02;10.40;72.80
29403;DHT22;16382;59.942;30.472;2023-04-02T11:32:35;9.90;75.50
29403;DHT22;16382;59.942;30.472;2023-04-02T11:35:34;10.90;75.20
29403;DHT22;16382;59.942;30.472;2023-04-02T11:44:30;9.00;77.20
29403;DHT22;16382;59.942;30.472;2023-04-02T11:47:16;8.70;79.10
29403;DHT22;16382;59.942;30.472;2023-04-02T11:50:03;8.80;80.80
29403;DHT22;16382;59.942;30.472;2023-04-02T11:52:38;8.80;79.40
29403;DHT22;16382;59.942;30.472;2023-04-02T11:55:21;8.80;80.60
29403;DHT22;16382;59.942;30.472;2023-04-02T11:58:30;8.80;79.00
29403;DHT22;16382;59.942;30.472;2023-04-02T12:01:29;8.60;79.70
29403;DHT22;16382;59.942;30.472;2023-04-02T12:10:53;8.30;83.80
29403;DHT22;16382;59.942;30.472;2023-04-02T12:13:58;8.90;81.40
29403;DHT22;16382;59.942;30.472;2023-04-02T12:16:26;9.40;80.20
29403;DHT22;16382;59.942;30.472;2023-04-02T12:18:59;9.60;79.30
29403;DHT22;16382;59.942;30.472;2023-04-02T12:21:29;9.40;79.40
29403;DHT22;16382;59.942;30.472;2023-04-02T12:23:57;9.10;79.90
29403;DHT22;16382;59.942;30.472;2023-04-02T12:26:31;9.20;78.50
29403;DHT22;16382;59.942;30.472;2023-04-02T12:29:29;9.20;78.60
29403;DHT22;16382;59.942;30.472;2023-04-02T12:31:58;9.20;80.20
29403;DHT22;16382;59.942;30.472;2023-04-02T12:34:33;9.00;77.30
29403;DHT22;16382;59.942;30.472;2023-04-02T12:37:04;9.10;77.40
29403;DHT22;16382;59.942;30.472;2023-04-02T12:39:33;9.40;77.30
29403;DHT22;16382;59.942;30.472;2023-04-02T12:42:02;9.40;75.40
29403;DHT22;16382;59.942;30.472;2023-04-02T12:44:30;9.00;76.30
29403;DHT22;16382;59.942;30.472;2023-04-02T12:46:58;8.50;77.60
29403;DHT22;16382;59.942;30.472;2023-04-02T12:49:32;8.30;78.70
29403;DHT22;16382;59.942;30.472;2023-04-02T12:52:05;7.90;78.90
29403;DHT22;16382;59.942;30.472;2023-04-02T12:54:37;7.50;80.50
29403;DHT22;16382;59.942;30.472;2023-04-02T12:57:33;7.20;82.80
29403;DHT22;16382;59.942;30.472;2023-04-02T13:00:30;7.40;83.90
29403;DHT22;16382;59.942;30.472;2023-04-02T13:03:12;7.70;81.30
29403;DHT22;16382;59.942;30.472;2023-04-02T13:05:46;7.70;81.30
29403;DHT22;16382;59.942;30.472;2023-04-02T13:08:22;8.10;82.70
29403;DHT22;16382;59.942;30.472;2023-04-02T13:10:54;8.50;79.50
29403;DHT22;16382;59.942;30.472;2023-04-02T13:13:27;8.60;78.80
29403;DHT22;16382;59.942;30.472;2023-04-02T13:16:05;8.50;78.40
29403;DHT22;16382;59.942;30.472;2023-04-02T13:18:36;8.40;80.20
29403;DHT22;16382;59.942;30.472;2023-04-02T13:21:05;8.10;80.80
29403;DHT22;16382;59.942;30.472;2023-04-02T13:23:37;7.70;80.20
29403;DHT22;16382;59.942;30.472;2023-04-02T13:26:14;7.40;80.70
29403;DHT22;16382;59.942;30.472;2023-04-02T13:28:58;7.10;82.00
29403;DHT22;16382;59.942;30.472;2023-04-02T13:31:26;7.40;82.30
29403;DHT22;16382;59.942;30.472;2023-04-02T13:33:55;7.30;80.60
29403;DHT22;16382;59.942;30.472;2023-04-02T13:36:28;7.10;81.90
29403;DHT22;16382;59.942;30.472;2023-04-02T13:38:57;7.10;82.40
29403;DHT22;16382;59.942;30.472;2023-04-02T13:41:27;8.00;82.30
29403;DHT22;16382;59.942;30.472;2023-04-02T13:43:58;10.00;77.20
29403;DHT22;16382;59.942;30.472;2023-04-02T13:46:28;10.60;72.20
29403;DHT22;16382;59.942;30.472;2023-04-02T13:48:57;10.10;72.20
29403;DHT22;16382;59.942;30.472;2023-04-02T13:51:33;9.30;72.80
29403;DHT22;16382;59.942;30.472;2023-04-02T13:54:08;9.10;74.30
29403;DHT22;16382;59.942;30.472;2023-04-02T13:56:38;9.20;73.40
29403;DHT22;16382;59.942;30.472;2023-04-02T13:59:06;10.00;74.20
29403;DHT22;16382;59.942;30.472;2023-04-02T14:01:34;10.60;70.20
29403;DHT22;16382;59.942;30.472;2023-04-02T14:04:03;11.10;67.80
29403;DHT22;16382;59.942;30.472;2023-04-02T14:06:48;10.90;67.30
29403;DHT22;16382;59.942;30.472;2023-04-02T14:09:42;9.90;68.00
29403;DHT22;16382;59.942;30.472;2023-04-02T14:12:23;8.80;71.20
29403;DHT22;16382;59.942;30.472;2023-04-02T14:15:20;8.00;73.70
29403;DHT22;16382;59.942;30.472;2023-04-02T14:21:00;6.90;78.00
29403;DHT22;16382;59.942;30.472;2023-04-02T14:23:43;6.70;79.70
29403;DHT22;16382;59.942;30.472;2023-04-02T14:26:24;6.50;80.00
29403;DHT22;16382;59.942;30.472;2023-04-02T14:29:00;6.70;81.80
29403;DHT22;16382;59.942;30.472;2023-04-02T14:31:33;7.50;79.50
29403;DHT22;16382;59.942;30.472;2023-04-02T14:34:07;9.10;76.80
29403;DHT22;16382;59.942;30.472;2023-04-02T14:36:47;10.60;71.20
29403;DHT22;16382;59.942;30.472;2023-04-02T14:39:28;10.90;67.30
29403;DHT22;16382;59.942;30.472;2023-04-02T14:42:08;10.00;67.80
29403;DHT22;16382;59.942;30.472;2023-04-02T14:44:43;9.10;70.10
29403;DHT22;16382;59.942;30.472;2023-04-02T14:47:19;8.20;71.90
29403;DHT22;16382;59.942;30.472;2023-04-02T14:49:51;7.40;75.40
29403;DHT22;16382;59.942;30.472;2023-04-02T14:52:23;6.90;77.20
29403;DHT22;16382;59.942;30.472;2023-04-02T14:54:55;6.60;78.20
29403;DHT22;16382;59.942;30.472;2023-04-02T14:57:31;6.30;80.00
29403;DHT22;16382;59.942;30.472;2023-04-02T15:00:06;6.10;81.50
29403;DHT22;16382;59.942;30.472;2023-04-02T15:02:42;5.80;83.30
29403;DHT22;16382;59.942;30.472;2023-04-02T15:05:19;5.50;84.40
29403;DHT22;16382;59.942;30.472;2023-04-02T15:07:52;5.30;86.00
29403;DHT22;16382;59.942;30.472;2023-04-02T15:10:27;5.20;87.50
29403;DHT22;16382;59.942;30.472;2023-04-02T15:12:58;5.00;87.30
29403;DHT22;16382;59.942;30.472;2023-04-02T15:15:40;4.90;88.40
29403;DHT22;16382;59.942;30.472;2023-04-02T15:18:12;4.70;89.30
29403;DHT22;16382;59.942;30.472;2023-04-02T15:20:47;4.70;90.40
29403;DHT22;16382;59.942;30.472;2023-04-02T15:23:29;4.60;90.50
29403;DHT22;16382;59.942;30.472;2023-04-02T15:26:06;4.50;91.50
29403;DHT22;16382;59.942;30.472;2023-04-02T15:28:45;4.30;91.40
29403;DHT22;16382;59.942;30.472;2023-04-02T15:31:18;4.20;91.60
29403;DHT22;16382;59.942;30.472;2023-04-02T15:33:52;4.10;92.10
29403;DHT22;16382;59.942;30.472;2023-04-02T15:36:46;4.10;92.00
29403;DHT22;16382;59.942;30.472;2023-04-02T15:39:51;4.20;92.40
29403;DHT22;16382;59.942;30.472;2023-04-02T15:42:27;4.10;93.00
29403;DHT22;16382;59.942;30.472;2023-04-02T15:45:27;4.10;92.90
29403;DHT22;16382;59.942;30.472;2023-04-02T15:48:22;4.10;93.40
29403;DHT22;16382;59.942;30.472;2023-04-02T15:51:02;4.10;93.10
29403;DHT22;16382;59.942;30.472;2023-04-02T15:53:44;4.00;93.30
29403;DHT22;16382;59.942;30.472;2023-04-02T15:56:33;4.00;93.70
29403;DHT22;16382;59.942;30.472;2023-04-02T15:59:21;4.00;94.80
29403;DHT22;16382;59.942;30.472;2023-04-02T16:02:05;4.00;95.50
29403;DHT22;16382;59.942;30.472;2023-04-02T16:04:53;3.90;95.20
29403;DHT22;16382;59.942;30.472;2023-04-02T16:07:43;3.90;95.20
29403;DHT22;16382;59.942;30.472;2023-04-02T16:10:25;3.80;95.20
29403;DHT22;16382;59.942;30.472;2023-04-02T16:12:57;3.70;95.50
29403;DHT22;16382;59.942;30.472;2023-04-02T16:15:29;3.60;96.00
29403;DHT22;16382;59.942;30.472;2023-04-02T16:18:09;3.50;96.60
29403;DHT22;16382;59.942;30.472;2023-04-02T16:20:43;3.40;96.80
29403;DHT22;16382;59.942;30.472;2023-04-02T16:23:21;3.40;97.10
29403;DHT22;16382;59.942;30.472;2023-04-02T16:26:02;3.30;98.20
29403;DHT22;16382;59.942;30.472;2023-04-02T16:28:45;3.20;98.40
29403;DHT22;16382;59.942;30.472;2023-04-02T16:31:23;3.20;99.90
29403;DHT22;16382;59.942;30.472;2023-04-02T16:33:59;3.10;99.90
29403;DHT22;16382;59.942;30.472;2023-04-02T16:36:41;3.10;99.90
29403;DHT22;16382;59.942;30.472;2023-04-02T16:39:24;3.00;99.90